sensor_id;sensor_type;location;lat;lon;timestamp;P1;durP1;ratioP1;P2;durP2;ratioP2
57113;SDS011;42994;51.606;9.988;2023-04-30T00:00:58;12.27;;;6.65;;
57113;SDS011;42994;51.606;9.988;2023-04-30T00:03:26;7.03;;;4.85;;
57113;SDS011;42994;51.606;9.988;2023-04-30T00:05:52;7.10;;;5.75;;
57113;SDS011;42994;51.606;9.988;2023-04-30T00:08:19;6.47;;;4.78;;
57113;SDS011;42994;51.606;9.988;2023-04-30T00:10:46;7.47;;;4.93;;
57113;SDS011;42994;51.606;9.988;2023-04-30T00:13:12;8.23;;;5.30;;
57113;SDS011;42994;51.606;9.988;2023-04-30T00:15:39;13.18;;;5.53;;
57113;SDS011;42994;51.606;9.988;2023-04-30T00:18:05;7.05;;;4.80;;
57113;SDS011;42994;51.606;9.988;2023-04-30T00:20:33;5.90;;;4.72;;
57113;SDS011;42994;51.606;9.988;2023-04-30T00:23:00;11.63;;;5.05;;
57113;SDS011;42994;51.606;9.988;2023-04-30T00:25:27;8.30;;;5.35;;
57113;SDS011;42994;51.606;9.988;2023-04-30T00:27:53;6.20;;;5.55;;
57113;SDS011;42994;51.606;9.988;2023-04-30T00:30:20;6.10;;;4.65;;
57113;SDS011;42994;51.606;9.988;2023-04-30T00:32:46;7.60;;;5.18;;
57113;SDS011;42994;51.606;9.988;2023-04-30T00:35:13;7.05;;;5.18;;
57113;SDS011;42994;51.606;9.988;2023-04-30T00:37:41;7.53;;;4.63;;
57113;SDS011;42994;51.606;9.988;2023-04-30T00:40:08;7.97;;;5.40;;
57113;SDS011;42994;51.606;9.988;2023-04-30T00:42:35;6.85;;;5.32;;
57113;SDS011;42994;51.606;9.988;2023-04-30T00:45:02;8.95;;;5.30;;
57113;SDS011;42994;51.606;9.988;2023-04-30T00:47:30;6.25;;;5.15;;
57113;SDS011;42994;51.606;9.988;2023-04-30T00:49:57;6.40;;;5.05;;
57113;SDS011;42994;51.606;9.988;2023-04-30T00:52:24;8.07;;;4.53;;
57113;SDS011;42994;51.606;9.988;2023-04-30T00:54:51;6.70;;;5.30;;
57113;SDS011;42994;51.606;9.988;2023-04-30T00:57:19;9.35;;;4.88;;
57113;SDS011;42994;51.606;9.988;2023-04-30T00:59:46;7.75;;;4.78;;
57113;SDS011;42994;51.606;9.988;2023-04-30T01:02:14;6.97;;;5.35;;
57113;SDS011;42994;51.606;9.988;2023-04-30T01:04:41;7.95;;;5.53;;
57113;SDS011;42994;51.606;9.988;2023-04-30T01:07:08;7.70;;;4.63;;
57113;SDS011;42994;51.606;9.988;2023-04-30T01:09:35;8.02;;;4.85;;
57113;SDS011;42994;51.606;9.988;2023-04-30T01:12:07;8.40;;;4.70;;
57113;SDS011;42994;51.606;9.988;2023-04-30T01:14:38;10.90;;;5.85;;
57113;SDS011;42994;51.606;9.988;2023-04-30T01:17:11;8.50;;;5.32;;
57113;SDS011;42994;51.606;9.988;2023-04-30T01:19:44;11.32;;;5.68;;
57113;SDS011;42994;51.606;9.988;2023-04-30T01:22:13;7.57;;;4.82;;
57113;SDS011;42994;51.606;9.988;2023-04-30T01:25:02;8.68;;;5.57;;
57113;SDS011;42994;51.606;9.988;2023-04-30T01:27:45;6.95;;;4.10;;
57113;SDS011;42994;51.606;9.988;2023-04-30T01:30:31;7.03;;;5.07;;
57113;SDS011;42994;51.606;9.988;2023-04-30T01:32:58;8.68;;;4.70;;
57113;SDS011;42994;51.606;9.988;2023-04-30T01:35:29;7.28;;;5.07;;
57113;SDS011;42994;51.606;9.988;2023-04-30T01:38:05;6.32;;;4.60;;
57113;SDS011;42994;51.606;9.988;2023-04-30T01:40:40;9.68;;;5.28;;
57113;SDS011;42994;51.606;9.988;2023-04-30T01:43:16;8.38;;;5.35;;
57113;SDS011;42994;51.606;9.988;2023-04-30T01:45:53;8.15;;;5.10;;
57113;SDS011;42994;51.606;9.988;2023-04-30T01:48:27;9.50;;;5.50;;
57113;SDS011;42994;51.606;9.988;2023-04-30T01:51:01;11.38;;;5.00;;
57113;SDS011;42994;51.606;9.988;2023-04-30T01:53:36;8.65;;;4.50;;
57113;SDS011;42994;51.606;9.988;2023-04-30T01:56:08;8.77;;;5.18;;
57113;SDS011;42994;51.606;9.988;2023-04-30T01:58:39;8.02;;;5.25;;
57113;SDS011;42994;51.606;9.988;2023-04-30T02:01:06;8.95;;;4.95;;
57113;SDS011;42994;51.606;9.988;2023-04-30T02:03:33;6.35;;;5.35;;
57113;SDS011;42994;51.606;9.988;2023-04-30T02:06:00;11.38;;;5.03;;
57113;SDS011;42994;51.606;9.988;2023-04-30T02:08:27;10.02;;;5.35;;
57113;SDS011;42994;51.606;9.988;2023-04-30T02:10:54;7.80;;;4.53;;
57113;SDS011;42994;51.606;9.988;2023-04-30T02:13:20;6.35;;;4.78;;
57113;SDS011;42994;51.606;9.988;2023-04-30T02:15:48;15.25;;;6.10;;
57113;SDS011;42994;51.606;9.988;2023-04-30T02:18:15;37.80;;;28.02;;
57113;SDS011;42994;51.606;9.988;2023-04-30T02:20:42;20.90;;;14.23;;
57113;SDS011;42994;51.606;9.988;2023-04-30T02:23:10;11.95;;;7.03;;
57113;SDS011;42994;51.606;9.988;2023-04-30T02:25:36;10.90;;;5.88;;
57113;SDS011;42994;51.606;9.988;2023-04-30T02:28:03;7.05;;;5.32;;
57113;SDS011;42994;51.606;9.988;2023-04-30T02:30:30;9.20;;;5.72;;
57113;SDS011;42994;51.606;9.988;2023-04-30T02:32:58;13.57;;;6.60;;
57113;SDS011;42994;51.606;9.988;2023-04-30T02:35:24;13.15;;;5.50;;
57113;SDS011;42994;51.606;9.988;2023-04-30T02:37:51;12.07;;;5.90;;
57113;SDS011;42994;51.606;9.988;2023-04-30T02:40:17;10.13;;;6.32;;
57113;SDS011;42994;51.606;9.988;2023-04-30T02:42:44;13.35;;;6.53;;
57113;SDS011;42994;51.606;9.988;2023-04-30T02:45:11;8.48;;;5.70;;
57113;SDS011;42994;51.606;9.988;2023-04-30T02:47:38;12.95;;;6.25;;
57113;SDS011;42994;51.606;9.988;2023-04-30T02:50:07;9.57;;;6.05;;
57113;SDS011;42994;51.606;9.988;2023-04-30T02:52:34;14.18;;;6.18;;
57113;SDS011;42994;51.606;9.988;2023-04-30T02:55:00;9.15;;;5.63;;
57113;SDS011;42994;51.606;9.988;2023-04-30T02:57:28;8.73;;;5.82;;
57113;SDS011;42994;51.606;9.988;2023-04-30T02:59:54;13.18;;;5.75;;
57113;SDS011;42994;51.606;9.988;2023-04-30T03:02:21;13.95;;;5.65;;
57113;SDS011;42994;51.606;9.988;2023-04-30T03:04:49;9.10;;;5.93;;
57113;SDS011;42994;51.606;9.988;2023-04-30T03:07:17;11.98;;;6.10;;
57113;SDS011;42994;51.606;9.988;2023-04-30T03:09:44;9.57;;;5.78;;
57113;SDS011;42994;51.606;9.988;2023-04-30T03:12:11;9.88;;;5.90;;
57113;SDS011;42994;51.606;9.988;2023-04-30T03:14:38;10.85;;;6.45;;
57113;SDS011;42994;51.606;9.988;2023-04-30T03:17:05;14.18;;;6.22;;
57113;SDS011;42994;51.606;9.988;2023-04-30T03:19:32;6.78;;;5.63;;
57113;SDS011;42994;51.606;9.988;2023-04-30T03:21:59;13.70;;;7.28;;
57113;SDS011;42994;51.606;9.988;2023-04-30T03:24:27;9.85;;;6.65;;
57113;SDS011;42994;51.606;9.988;2023-04-30T03:26:54;13.27;;;6.20;;
57113;SDS011;42994;51.606;9.988;2023-04-30T03:29:21;9.57;;;6.35;;
57113;SDS011;42994;51.606;9.988;2023-04-30T03:31:48;11.80;;;6.55;;
57113;SDS011;42994;51.606;9.988;2023-04-30T03:34:15;18.73;;;7.43;;
57113;SDS011;42994;51.606;9.988;2023-04-30T03:36:42;10.43;;;5.82;;
57113;SDS011;42994;51.606;9.988;2023-04-30T03:39:08;11.90;;;5.60;;
57113;SDS011;42994;51.606;9.988;2023-04-30T03:41:36;8.55;;;6.18;;
57113;SDS011;42994;51.606;9.988;2023-04-30T03:44:03;12.82;;;6.28;;
57113;SDS011;42994;51.606;9.988;2023-04-30T03:46:30;11.35;;;6.32;;
57113;SDS011;42994;51.606;9.988;2023-04-30T03:48:57;10.98;;;6.05;;
57113;SDS011;42994;51.606;9.988;2023-04-30T03:51:24;17.88;;;5.80;;
57113;SDS011;42994;51.606;9.988;2023-04-30T03:53:52;12.38;;;6.30;;
57113;SDS011;42994;51.606;9.988;2023-04-30T03:56:19;9.90;;;6.22;;
57113;SDS011;42994;51.606;9.988;2023-04-30T03:58:47;11.70;;;6.30;;
57113;SDS011;42994;51.606;9.988;2023-04-30T04:01:13;12.93;;;6.72;;
57113;SDS011;42994;51.606;9.988;2023-04-30T04:03:40;15.00;;;6.47;;
57113;SDS011;42994;51.606;9.988;2023-04-30T04:06:07;12.82;;;6.80;;
57113;SDS011;42994;51.606;9.988;2023-04-30T04:08:33;8.48;;;6.60;;
57113;SDS011;42994;51.606;9.988;2023-04-30T04:11:00;14.32;;;7.80;;
57113;SDS011;42994;51.606;9.988;2023-04-30T04:13:27;12.20;;;6.07;;
57113;SDS011;42994;51.606;9.988;2023-04-30T04:15:55;10.07;;;5.63;;
57113;SDS011;42994;51.606;9.988;2023-04-30T04:18:22;9.05;;;5.38;;
57113;SDS011;42994;51.606;9.988;2023-04-30T04:20:48;9.27;;;5.78;;
57113;SDS011;42994;51.606;9.988;2023-04-30T04:23:16;13.32;;;6.30;;
57113;SDS011;42994;51.606;9.988;2023-04-30T04:25:42;10.95;;;6.00;;
57113;SDS011;42994;51.606;9.988;2023-04-30T04:28:11;7.93;;;5.35;;
57113;SDS011;42994;51.606;9.988;2023-04-30T04:30:38;8.55;;;5.28;;
57113;SDS011;42994;51.606;9.988;2023-04-30T04:33:07;10.68;;;6.47;;
57113;SDS011;42994;51.606;9.988;2023-04-30T04:35:34;9.77;;;5.28;;
57113;SDS011;42994;51.606;9.988;2023-04-30T04:38:01;9.57;;;5.47;;
57113;SDS011;42994;51.606;9.988;2023-04-30T04:40:29;9.95;;;4.95;;
57113;SDS011;42994;51.606;9.988;2023-04-30T04:42:56;9.43;;;5.72;;
57113;SDS011;42994;51.606;9.988;2023-04-30T04:45:22;8.85;;;5.53;;
57113;SDS011;42994;51.606;9.988;2023-04-30T04:47:49;11.90;;;5.90;;
57113;SDS011;42994;51.606;9.988;2023-04-30T04:50:17;12.63;;;7.18;;
57113;SDS011;42994;51.606;9.988;2023-04-30T04:52:44;13.15;;;6.22;;
57113;SDS011;42994;51.606;9.988;2023-04-30T04:55:10;12.90;;;5.95;;
57113;SDS011;42994;51.606;9.988;2023-04-30T04:57:38;11.80;;;6.05;;
57113;SDS011;42994;51.606;9.988;2023-04-30T05:00:06;11.45;;;6.53;;
57113;SDS011;42994;51.606;9.988;2023-04-30T05:02:34;16.73;;;6.45;;
57113;SDS011;42994;51.606;9.988;2023-04-30T05:05:01;9.60;;;5.97;;
57113;SDS011;42994;51.606;9.988;2023-04-30T05:07:29;7.97;;;5.25;;
57113;SDS011;42994;51.606;9.988;2023-04-30T05:09:56;9.57;;;5.63;;
57113;SDS011;42994;51.606;9.988;2023-04-30T05:12:23;10.48;;;5.75;;
57113;SDS011;42994;51.606;9.988;2023-04-30T05:14:50;8.65;;;5.30;;
57113;SDS011;42994;51.606;9.988;2023-04-30T05:17:16;14.95;;;5.80;;
57113;SDS011;42994;51.606;9.988;2023-04-30T05:19:43;11.55;;;5.55;;
57113;SDS011;42994;51.606;9.988;2023-04-30T05:22:11;15.07;;;5.78;;
57113;SDS011;42994;51.606;9.988;2023-04-30T05:24:39;16.52;;;6.45;;
57113;SDS011;42994;51.606;9.988;2023-04-30T05:27:06;16.90;;;6.38;;
57113;SDS011;42994;51.606;9.988;2023-04-30T05:29:33;12.55;;;5.68;;
57113;SDS011;42994;51.606;9.988;2023-04-30T05:31:59;16.20;;;6.30;;
57113;SDS011;42994;51.606;9.988;2023-04-30T05:34:26;13.93;;;5.32;;
57113;SDS011;42994;51.606;9.988;2023-04-30T05:36:53;18.38;;;7.20;;
57113;SDS011;42994;51.606;9.988;2023-04-30T05:39:20;19.45;;;7.30;;
57113;SDS011;42994;51.606;9.988;2023-04-30T05:41:48;16.63;;;7.28;;
57113;SDS011;42994;51.606;9.988;2023-04-30T05:44:14;18.60;;;6.95;;
57113;SDS011;42994;51.606;9.988;2023-04-30T05:46:41;19.38;;;6.65;;
57113;SDS011;42994;51.606;9.988;2023-04-30T05:49:08;13.23;;;6.38;;
57113;SDS011;42994;51.606;9.988;2023-04-30T05:51:34;14.05;;;7.40;;
57113;SDS011;42994;51.606;9.988;2023-04-30T05:54:01;18.33;;;6.93;;
57113;SDS011;42994;51.606;9.988;2023-04-30T05:56:27;14.50;;;6.57;;
57113;SDS011;42994;51.606;9.988;2023-04-30T05:58:55;12.27;;;6.10;;
57113;SDS011;42994;51.606;9.988;2023-04-30T06:01:23;11.82;;;5.63;;
57113;SDS011;42994;51.606;9.988;2023-04-30T06:03:52;9.82;;;4.38;;
57113;SDS011;42994;51.606;9.988;2023-04-30T06:06:19;9.63;;;3.50;;
57113;SDS011;42994;51.606;9.988;2023-04-30T06:08:46;8.63;;;4.28;;
57113;SDS011;42994;51.606;9.988;2023-04-30T06:11:13;11.30;;;3.75;;
57113;SDS011;42994;51.606;9.988;2023-04-30T06:13:39;11.07;;;4.00;;
57113;SDS011;42994;51.606;9.988;2023-04-30T06:16:07;11.30;;;4.85;;
57113;SDS011;42994;51.606;9.988;2023-04-30T06:18:34;8.00;;;3.13;;
57113;SDS011;42994;51.606;9.988;2023-04-30T06:21:01;8.48;;;2.63;;
57113;SDS011;42994;51.606;9.988;2023-04-30T06:23:27;12.73;;;3.78;;
57113;SDS011;42994;51.606;9.988;2023-04-30T06:25:54;8.13;;;2.60;;
57113;SDS011;42994;51.606;9.988;2023-04-30T06:28:21;17.63;;;3.00;;
57113;SDS011;42994;51.606;9.988;2023-04-30T06:30:48;15.48;;;3.78;;
57113;SDS011;42994;51.606;9.988;2023-04-30T06:33:16;14.02;;;3.75;;
57113;SDS011;42994;51.606;9.988;2023-04-30T06:35:43;11.50;;;3.90;;
57113;SDS011;42994;51.606;9.988;2023-04-30T06:38:09;15.63;;;3.47;;
57113;SDS011;42994;51.606;9.988;2023-04-30T06:40:36;5.80;;;2.63;;
57113;SDS011;42994;51.606;9.988;2023-04-30T06:43:02;10.63;;;2.80;;
57113;SDS011;42994;51.606;9.988;2023-04-30T06:45:29;10.15;;;3.65;;
57113;SDS011;42994;51.606;9.988;2023-04-30T06:47:56;13.73;;;3.53;;
57113;SDS011;42994;51.606;9.988;2023-04-30T06:50:24;13.82;;;3.33;;
57113;SDS011;42994;51.606;9.988;2023-04-30T06:52:51;9.48;;;3.35;;
57113;SDS011;42994;51.606;9.988;2023-04-30T06:55:18;4.88;;;2.30;;
57113;SDS011;42994;51.606;9.988;2023-04-30T06:57:45;8.75;;;2.70;;
57113;SDS011;42994;51.606;9.988;2023-04-30T07:00:11;9.07;;;2.42;;
57113;SDS011;42994;51.606;9.988;2023-04-30T07:02:39;12.32;;;3.38;;
57113;SDS011;42994;51.606;9.988;2023-04-30T07:05:06;12.85;;;3.60;;
57113;SDS011;42994;51.606;9.988;2023-04-30T07:07:35;8.23;;;2.50;;
57113;SDS011;42994;51.606;9.988;2023-04-30T07:10:02;9.13;;;2.60;;
57113;SDS011;42994;51.606;9.988;2023-04-30T07:12:29;9.88;;;2.90;;
57113;SDS011;42994;51.606;9.988;2023-04-30T07:14:55;9.50;;;2.60;;
57113;SDS011;42994;51.606;9.988;2023-04-30T07:17:22;9.07;;;2.22;;
57113;SDS011;42994;51.606;9.988;2023-04-30T07:19:49;12.63;;;2.60;;
57113;SDS011;42994;51.606;9.988;2023-04-30T07:22:15;9.40;;;2.42;;
57113;SDS011;42994;51.606;9.988;2023-04-30T07:24:43;13.02;;;2.85;;
57113;SDS011;42994;51.606;9.988;2023-04-30T07:27:10;7.93;;;2.85;;
57113;SDS011;42994;51.606;9.988;2023-04-30T07:29:37;8.82;;;2.38;;
57113;SDS011;42994;51.606;9.988;2023-04-30T07:32:03;11.20;;;3.03;;
57113;SDS011;42994;51.606;9.988;2023-04-30T07:34:30;10.63;;;3.25;;
57113;SDS011;42994;51.606;9.988;2023-04-30T07:36:57;5.05;;;2.30;;
57113;SDS011;42994;51.606;9.988;2023-04-30T07:39:24;9.43;;;2.92;;
57113;SDS011;42994;51.606;9.988;2023-04-30T07:41:52;13.90;;;3.13;;
57113;SDS011;42994;51.606;9.988;2023-04-30T07:44:18;9.88;;;2.70;;
57113;SDS011;42994;51.606;9.988;2023-04-30T07:46:45;10.18;;;2.70;;
57113;SDS011;42994;51.606;9.988;2023-04-30T07:49:12;8.30;;;3.22;;
57113;SDS011;42994;51.606;9.988;2023-04-30T07:51:39;10.32;;;3.03;;
57113;SDS011;42994;51.606;9.988;2023-04-30T07:54:07;11.98;;;2.97;;
57113;SDS011;42994;51.606;9.988;2023-04-30T07:56:33;11.10;;;3.03;;
57113;SDS011;42994;51.606;9.988;2023-04-30T07:59:01;8.57;;;2.83;;
57113;SDS011;42994;51.606;9.988;2023-04-30T08:01:28;10.18;;;3.08;;
57113;SDS011;42994;51.606;9.988;2023-04-30T08:03:54;10.45;;;3.20;;
57113;SDS011;42994;51.606;9.988;2023-04-30T08:06:21;9.85;;;3.72;;
57113;SDS011;42994;51.606;9.988;2023-04-30T08:08:48;8.02;;;2.97;;
57113;SDS011;42994;51.606;9.988;2023-04-30T08:11:15;9.25;;;3.53;;
57113;SDS011;42994;51.606;9.988;2023-04-30T08:13:41;7.53;;;3.10;;
57113;SDS011;42994;51.606;9.988;2023-04-30T08:16:09;8.30;;;2.67;;
57113;SDS011;42994;51.606;9.988;2023-04-30T08:18:36;9.25;;;3.30;;
57113;SDS011;42994;51.606;9.988;2023-04-30T08:21:08;10.85;;;2.97;;
57113;SDS011;42994;51.606;9.988;2023-04-30T08:23:35;8.50;;;2.80;;
57113;SDS011;42994;51.606;9.988;2023-04-30T08:26:02;12.23;;;2.95;;
57113;SDS011;42994;51.606;9.988;2023-04-30T08:28:29;9.63;;;3.13;;
57113;SDS011;42994;51.606;9.988;2023-04-30T08:30:55;9.55;;;3.47;;
57113;SDS011;42994;51.606;9.988;2023-04-30T08:33:23;11.82;;;3.28;;
57113;SDS011;42994;51.606;9.988;2023-04-30T08:35:50;10.40;;;3.00;;
57113;SDS011;42994;51.606;9.988;2023-04-30T08:38:18;9.82;;;3.13;;
57113;SDS011;42994;51.606;9.988;2023-04-30T08:40:46;9.77;;;3.15;;
57113;SDS011;42994;51.606;9.988;2023-04-30T08:43:17;10.80;;;3.80;;
57113;SDS011;42994;51.606;9.988;2023-04-30T08:45:44;11.05;;;3.25;;
57113;SDS011;42994;51.606;9.988;2023-04-30T08:48:11;9.32;;;3.33;;
57113;SDS011;42994;51.606;9.988;2023-04-30T08:50:42;8.35;;;3.20;;
57113;SDS011;42994;51.606;9.988;2023-04-30T08:53:08;14.93;;;3.65;;
57113;SDS011;42994;51.606;9.988;2023-04-30T08:55:36;7.93;;;3.00;;
57113;SDS011;42994;51.606;9.988;2023-04-30T08:58:05;9.45;;;2.88;;
57113;SDS011;42994;51.606;9.988;2023-04-30T09:00:32;6.10;;;2.72;;
57113;SDS011;42994;51.606;9.988;2023-04-30T09:03:02;4.35;;;2.58;;
57113;SDS011;42994;51.606;9.988;2023-04-30T09:05:30;12.18;;;3.63;;
57113;SDS011;42994;51.606;9.988;2023-04-30T09:07:58;11.38;;;3.53;;
57113;SDS011;42994;51.606;9.988;2023-04-30T09:10:25;12.05;;;3.63;;
57113;SDS011;42994;51.606;9.988;2023-04-30T09:12:58;7.20;;;3.15;;
57113;SDS011;42994;51.606;9.988;2023-04-30T09:15:26;10.75;;;3.72;;
57113;SDS011;42994;51.606;9.988;2023-04-30T09:18:07;9.93;;;3.53;;
57113;SDS011;42994;51.606;9.988;2023-04-30T09:20:35;9.68;;;2.95;;
57113;SDS011;42994;51.606;9.988;2023-04-30T09:23:07;7.03;;;3.13;;
57113;SDS011;42994;51.606;9.988;2023-04-30T09:25:39;8.52;;;2.88;;
57113;SDS011;42994;51.606;9.988;2023-04-30T09:28:07;10.90;;;3.47;;
57113;SDS011;42994;51.606;9.988;2023-04-30T09:30:34;12.25;;;3.30;;
57113;SDS011;42994;51.606;9.988;2023-04-30T09:33:01;9.55;;;4.00;;
57113;SDS011;42994;51.606;9.988;2023-04-30T09:35:28;9.60;;;3.40;;
57113;SDS011;42994;51.606;9.988;2023-04-30T09:37:57;8.18;;;4.18;;
57113;SDS011;42994;51.606;9.988;2023-04-30T09:40:33;6.22;;;2.92;;
57113;SDS011;42994;51.606;9.988;2023-04-30T09:43:01;14.45;;;3.58;;
57113;SDS011;42994;51.606;9.988;2023-04-30T09:45:37;6.32;;;2.90;;
57113;SDS011;42994;51.606;9.988;2023-04-30T09:48:07;7.88;;;3.00;;
57113;SDS011;42994;51.606;9.988;2023-04-30T09:50:37;16.58;;;3.22;;
57113;SDS011;42994;51.606;9.988;2023-04-30T09:53:05;9.38;;;3.67;;
57113;SDS011;42994;51.606;9.988;2023-04-30T09:55:35;11.80;;;2.83;;
57113;SDS011;42994;51.606;9.988;2023-04-30T09:58:05;7.13;;;3.08;;
57113;SDS011;42994;51.606;9.988;2023-04-30T10:00:33;10.25;;;2.95;;
57113;SDS011;42994;51.606;9.988;2023-04-30T10:03:00;7.55;;;3.42;;
57113;SDS011;42994;51.606;9.988;2023-04-30T10:05:33;9.95;;;3.28;;
57113;SDS011;42994;51.606;9.988;2023-04-30T10:08:03;5.20;;;2.45;;
57113;SDS011;42994;51.606;9.988;2023-04-30T10:10:32;7.53;;;3.05;;
57113;SDS011;42994;51.606;9.988;2023-04-30T10:13:03;9.40;;;2.85;;
57113;SDS011;42994;51.606;9.988;2023-04-30T10:15:34;7.00;;;2.75;;
57113;SDS011;42994;51.606;9.988;2023-04-30T10:20:33;9.20;;;2.50;;
57113;SDS011;42994;51.606;9.988;2023-04-30T10:23:01;10.73;;;2.78;;
57113;SDS011;42994;51.606;9.988;2023-04-30T10:25:28;7.32;;;2.40;;
57113;SDS011;42994;51.606;9.988;2023-04-30T10:27:57;9.15;;;2.30;;
57113;SDS011;42994;51.606;9.988;2023-04-30T10:30:23;8.30;;;2.25;;
57113;SDS011;42994;51.606;9.988;2023-04-30T10:32:52;7.07;;;2.42;;
57113;SDS011;42994;51.606;9.988;2023-04-30T10:35:25;4.97;;;2.90;;
57113;SDS011;42994;51.606;9.988;2023-04-30T10:37:56;6.57;;;2.70;;
57113;SDS011;42994;51.606;9.988;2023-04-30T10:40:33;11.10;;;2.97;;
57113;SDS011;42994;51.606;9.988;2023-04-30T10:43:02;4.47;;;1.75;;
57113;SDS011;42994;51.606;9.988;2023-04-30T10:45:33;7.05;;;2.03;;
57113;SDS011;42994;51.606;9.988;2023-04-30T10:48:02;7.13;;;2.13;;
57113;SDS011;42994;51.606;9.988;2023-04-30T10:50:29;13.75;;;2.88;;
57113;SDS011;42994;51.606;9.988;2023-04-30T10:53:00;6.38;;;1.80;;
57113;SDS011;42994;51.606;9.988;2023-04-30T10:55:28;6.50;;;1.85;;
57113;SDS011;42994;51.606;9.988;2023-04-30T10:57:56;4.55;;;1.80;;
57113;SDS011;42994;51.606;9.988;2023-04-30T11:00:25;7.63;;;1.40;;
57113;SDS011;42994;51.606;9.988;2023-04-30T11:02:56;5.88;;;1.90;;
57113;SDS011;42994;51.606;9.988;2023-04-30T11:05:34;5.25;;;2.17;;
57113;SDS011;42994;51.606;9.988;2023-04-30T11:08:02;4.50;;;1.73;;
57113;SDS011;42994;51.606;9.988;2023-04-30T11:10:31;4.28;;;1.63;;
57113;SDS011;42994;51.606;9.988;2023-04-30T11:13:02;3.78;;;1.63;;
57113;SDS011;42994;51.606;9.988;2023-04-30T11:15:32;3.42;;;1.52;;
57113;SDS011;42994;51.606;9.988;2023-04-30T11:18:01;10.02;;;2.35;;
57113;SDS011;42994;51.606;9.988;2023-04-30T11:20:28;5.18;;;1.55;;
57113;SDS011;42994;51.606;9.988;2023-04-30T11:23:07;8.05;;;1.83;;
57113;SDS011;42994;51.606;9.988;2023-04-30T11:25:38;5.38;;;1.60;;
57113;SDS011;42994;51.606;9.988;2023-04-30T11:28:06;4.88;;;1.60;;
57113;SDS011;42994;51.606;9.988;2023-04-30T11:30:35;5.28;;;1.92;;
57113;SDS011;42994;51.606;9.988;2023-04-30T11:33:02;5.63;;;1.75;;
57113;SDS011;42994;51.606;9.988;2023-04-30T11:35:29;3.25;;;1.55;;
57113;SDS011;42994;51.606;9.988;2023-04-30T11:37:57;3.63;;;1.38;;
57113;SDS011;42994;51.606;9.988;2023-04-30T11:40:25;3.63;;;1.27;;
57113;SDS011;42994;51.606;9.988;2023-04-30T11:42:54;4.57;;;1.38;;
57113;SDS011;42994;51.606;9.988;2023-04-30T11:45:21;7.47;;;1.77;;
57113;SDS011;42994;51.606;9.988;2023-04-30T11:47:53;4.93;;;1.80;;
57113;SDS011;42994;51.606;9.988;2023-04-30T11:50:20;6.13;;;1.48;;
57113;SDS011;42994;51.606;9.988;2023-04-30T11:52:53;3.58;;;1.30;;
57113;SDS011;42994;51.606;9.988;2023-04-30T11:55:22;4.85;;;1.60;;
57113;SDS011;42994;51.606;9.988;2023-04-30T11:57:50;4.75;;;1.30;;
57113;SDS011;42994;51.606;9.988;2023-04-30T12:00:20;3.05;;;1.30;;
57113;SDS011;42994;51.606;9.988;2023-04-30T12:02:50;3.45;;;1.38;;
57113;SDS011;42994;51.606;9.988;2023-04-30T12:05:19;3.50;;;1.00;;
57113;SDS011;42994;51.606;9.988;2023-04-30T12:07:47;2.85;;;1.23;;
57113;SDS011;42994;51.606;9.988;2023-04-30T12:10:15;1.95;;;0.80;;
57113;SDS011;42994;51.606;9.988;2023-04-30T12:12:45;5.57;;;0.98;;
57113;SDS011;42994;51.606;9.988;2023-04-30T12:15:13;3.72;;;1.45;;
57113;SDS011;42994;51.606;9.988;2023-04-30T12:17:41;4.38;;;1.42;;
57113;SDS011;42994;51.606;9.988;2023-04-30T12:20:09;4.68;;;1.60;;
57113;SDS011;42994;51.606;9.988;2023-04-30T12:22:38;2.90;;;1.45;;
57113;SDS011;42994;51.606;9.988;2023-04-30T12:25:06;3.70;;;1.58;;
57113;SDS011;42994;51.606;9.988;2023-04-30T12:27:35;7.55;;;1.63;;
57113;SDS011;42994;51.606;9.988;2023-04-30T12:30:04;6.18;;;1.77;;
57113;SDS011;42994;51.606;9.988;2023-04-30T12:32:36;6.60;;;1.33;;
57113;SDS011;42994;51.606;9.988;2023-04-30T12:35:07;2.95;;;1.30;;
57113;SDS011;42994;51.606;9.988;2023-04-30T12:37:41;4.90;;;2.00;;
57113;SDS011;42994;51.606;9.988;2023-04-30T12:40:10;5.80;;;1.50;;
57113;SDS011;42994;51.606;9.988;2023-04-30T12:42:37;3.72;;;1.30;;
57113;SDS011;42994;51.606;9.988;2023-04-30T12:45:05;2.47;;;1.20;;
57113;SDS011;42994;51.606;9.988;2023-04-30T12:47:32;4.13;;;1.48;;
57113;SDS011;42994;51.606;9.988;2023-04-30T12:50:06;6.43;;;1.60;;
57113;SDS011;42994;51.606;9.988;2023-04-30T12:52:34;3.40;;;1.00;;
57113;SDS011;42994;51.606;9.988;2023-04-30T12:55:14;7.45;;;1.90;;
57113;SDS011;42994;51.606;9.988;2023-04-30T13:00:44;5.68;;;1.98;;
57113;SDS011;42994;51.606;9.988;2023-04-30T13:03:13;4.13;;;1.77;;
57113;SDS011;42994;51.606;9.988;2023-04-30T13:05:40;5.60;;;1.80;;
57113;SDS011;42994;51.606;9.988;2023-04-30T13:08:11;6.32;;;1.58;;
57113;SDS011;42994;51.606;9.988;2023-04-30T13:10:40;4.75;;;1.60;;
57113;SDS011;42994;51.606;9.988;2023-04-30T13:13:06;8.35;;;1.65;;
57113;SDS011;42994;51.606;9.988;2023-04-30T13:15:33;9.18;;;1.85;;
57113;SDS011;42994;51.606;9.988;2023-04-30T13:18:00;2.60;;;1.20;;
57113;SDS011;42994;51.606;9.988;2023-04-30T13:20:27;7.35;;;1.52;;
57113;SDS011;42994;51.606;9.988;2023-04-30T13:22:54;5.68;;;1.80;;
57113;SDS011;42994;51.606;9.988;2023-04-30T13:25:21;6.72;;;1.90;;
57113;SDS011;42994;51.606;9.988;2023-04-30T13:27:49;13.18;;;2.13;;
57113;SDS011;42994;51.606;9.988;2023-04-30T13:30:15;4.05;;;1.40;;
57113;SDS011;42994;51.606;9.988;2023-04-30T13:32:42;4.10;;;1.83;;
57113;SDS011;42994;51.606;9.988;2023-04-30T13:35:10;4.10;;;1.33;;
57113;SDS011;42994;51.606;9.988;2023-04-30T13:37:37;4.35;;;1.60;;
57113;SDS011;42994;51.606;9.988;2023-04-30T13:40:04;6.78;;;1.67;;
57113;SDS011;42994;51.606;9.988;2023-04-30T13:42:32;4.72;;;1.33;;
57113;SDS011;42994;51.606;9.988;2023-04-30T13:45:00;3.97;;;1.52;;
57113;SDS011;42994;51.606;9.988;2023-04-30T13:47:27;4.07;;;1.23;;
57113;SDS011;42994;51.606;9.988;2023-04-30T13:49:54;6.47;;;1.52;;
57113;SDS011;42994;51.606;9.988;2023-04-30T13:52:21;4.53;;;1.33;;
57113;SDS011;42994;51.606;9.988;2023-04-30T13:54:48;2.88;;;1.27;;
57113;SDS011;42994;51.606;9.988;2023-04-30T13:57:15;3.28;;;1.30;;
57113;SDS011;42994;51.606;9.988;2023-04-30T13:59:42;4.18;;;1.35;;
57113;SDS011;42994;51.606;9.988;2023-04-30T14:02:10;5.32;;;1.75;;
57113;SDS011;42994;51.606;9.988;2023-04-30T14:04:36;6.55;;;1.33;;
57113;SDS011;42994;51.606;9.988;2023-04-30T14:07:03;9.30;;;2.08;;
57113;SDS011;42994;51.606;9.988;2023-04-30T14:09:30;3.90;;;1.05;;
57113;SDS011;42994;51.606;9.988;2023-04-30T14:11:57;3.22;;;1.02;;
57113;SDS011;42994;51.606;9.988;2023-04-30T14:14:24;3.97;;;1.38;;
57113;SDS011;42994;51.606;9.988;2023-04-30T14:16:52;6.97;;;1.38;;
57113;SDS011;42994;51.606;9.988;2023-04-30T14:19:21;6.45;;;1.60;;
57113;SDS011;42994;51.606;9.988;2023-04-30T14:21:48;2.72;;;1.38;;
57113;SDS011;42994;51.606;9.988;2023-04-30T14:24:14;3.70;;;1.52;;
57113;SDS011;42994;51.606;9.988;2023-04-30T14:26:42;2.92;;;1.48;;
57113;SDS011;42994;51.606;9.988;2023-04-30T14:29:09;5.18;;;1.30;;
57113;SDS011;42994;51.606;9.988;2023-04-30T14:31:36;7.63;;;1.55;;
57113;SDS011;42994;51.606;9.988;2023-04-30T14:34:06;6.22;;;1.48;;
57113;SDS011;42994;51.606;9.988;2023-04-30T14:36:35;2.50;;;1.35;;
57113;SDS011;42994;51.606;9.988;2023-04-30T14:39:02;6.65;;;1.40;;
57113;SDS011;42994;51.606;9.988;2023-04-30T14:41:32;5.65;;;1.35;;
57113;SDS011;42994;51.606;9.988;2023-04-30T14:44:00;7.20;;;2.13;;
57113;SDS011;42994;51.606;9.988;2023-04-30T14:46:27;2.65;;;1.08;;
57113;SDS011;42994;51.606;9.988;2023-04-30T14:48:55;5.20;;;2.55;;
57113;SDS011;42994;51.606;9.988;2023-04-30T14:51:21;4.05;;;1.15;;
57113;SDS011;42994;51.606;9.988;2023-04-30T14:53:50;3.35;;;1.50;;